CheckWX is a tool to help pilots better visualize weather data.  It is not intended as a substitute for an official pre-flight weather briefing.

18:04:06 UTC

KPSO METAR
Stevens Field Airport
Pagosa Springs, Colorado, USA
Current

9 mins ago

KPSO 171755Z AUTO 25003KT 10SM CLR M06/M15 A2985 RMK AO2 6//// T10651147
Observed
Feb-17 @ 17:55 UTC
Wind
  • 250° at 3 KTS
Visibility
10 SM
Flight Rules
VFR
Cloud Levels
  • Clear skies
Temperature
-7°C / 19°F
Dewpoint
-15°C / 5°F
Humidity
53%
Altimeter
29.85" Hg
Pressure
1010.82 hPa
Previous

29 mins ago

KPSO 171735Z AUTO 24003KT 10SM CLR M07/M14 A2985 RMK AO2 T10711145
Observed
Feb-17 @ 17:35 UTC
Wind
  • 240° at 3 KTS
Visibility
10 SM
Flight Rules
VFR
Cloud Levels
  • Clear skies
Temperature
-7°C / 19°F
Dewpoint
-15°C / 5°F
Humidity
53%
Altimeter
29.85" Hg
Pressure
1010.82 hPa
Previous

49 mins ago

KPSO 171715Z AUTO 00000KT 10SM CLR M08/M15 A2985 RMK AO2 T10781152
Observed
Feb-17 @ 17:15 UTC
Visibility
10 SM
Flight Rules
VFR
Cloud Levels
  • Clear skies
Temperature
-8°C / 18°F
Dewpoint
-15°C / 5°F
Humidity
58%
Altimeter
29.85" Hg
Pressure
1010.82 hPa